createdAt,value
2017-12-09T00:00:37.844Z,11.38
2017-12-09T00:03:05.907Z,10.38
2017-12-09T00:05:33.999Z,10.15
2017-12-09T00:08:02.867Z,9.90
2017-12-09T00:10:30.939Z,9.88
2017-12-09T00:12:59.035Z,10.48
2017-12-09T00:15:27.115Z,11.27
2017-12-09T00:17:55.211Z,10.32
2017-12-09T00:20:23.310Z,10.88
2017-12-09T00:22:51.389Z,11.75
2017-12-09T00:25:20.250Z,9.95
2017-12-09T00:27:48.320Z,9.32
2017-12-09T00:30:16.406Z,9.40
2017-12-09T00:32:44.482Z,9.57
2017-12-09T00:35:29.298Z,9.07
2017-12-09T00:37:57.418Z,9.38
2017-12-09T00:40:25.498Z,8.77
2017-12-09T00:42:53.593Z,9.43
2017-12-09T00:45:21.927Z,9.77
2017-12-09T00:47:50.006Z,8.32
2017-12-09T00:50:18.862Z,9.40
2017-12-09T00:52:47.061Z,8.85
2017-12-09T00:55:15.286Z,8.18
2017-12-09T00:57:43.443Z,8.80
2017-12-09T01:00:11.567Z,7.85
2017-12-09T01:02:39.663Z,8.68
2017-12-09T01:05:08.498Z,7.40
2017-12-09T01:07:36.590Z,9.27
2017-12-09T01:10:04.666Z,7.37
2017-12-09T01:12:32.748Z,7.40
2017-12-09T01:15:01.023Z,7.75
2017-12-09T01:17:41.608Z,7.47
2017-12-09T01:20:09.692Z,7.60
2017-12-09T01:22:37.787Z,6.30
2017-12-09T01:25:06.482Z,7.20
2017-12-09T01:27:34.576Z,6.78
2017-12-09T01:30:02.944Z,6.70
2017-12-09T01:32:31.027Z,6.30
2017-12-09T01:34:59.171Z,7.00
2017-12-09T01:37:27.252Z,7.25
2017-12-09T01:39:55.328Z,7.15
2017-12-09T01:42:23.409Z,6.90
2017-12-09T01:44:51.513Z,7.60
2017-12-09T01:47:19.577Z,6.70
2017-12-09T01:49:47.668Z,6.93
2017-12-09T01:52:16.280Z,7.37
2017-12-09T01:54:44.402Z,7.40
2017-12-09T01:57:12.487Z,7.57
2017-12-09T01:59:40.595Z,7.68
2017-12-09T02:02:08.682Z,8.00
2017-12-09T02:04:36.777Z,8.35
2017-12-09T02:07:05.644Z,8.05
2017-12-09T02:09:33.722Z,8.13
2017-12-09T02:12:02.580Z,8.10
2017-12-09T02:14:30.658Z,8.65
2017-12-09T02:16:58.744Z,8.77
2017-12-09T02:19:26.827Z,7.80
2017-12-09T02:21:55.680Z,8.48
2017-12-09T02:24:23.760Z,7.60
2017-12-09T02:26:51.867Z,8.18
2017-12-09T02:29:20.706Z,7.80
2017-12-09T02:31:48.800Z,8.40
2017-12-09T02:34:16.900Z,7.57
2017-12-09T02:36:45.007Z,7.40
2017-12-09T02:39:13.097Z,7.37
2017-12-09T02:41:41.185Z,8.30
2017-12-09T02:44:09.251Z,8.07
2017-12-09T02:46:37.339Z,8.38
2017-12-09T02:49:06.180Z,8.27
2017-12-09T02:51:34.261Z,8.15
2017-12-09T02:54:02.347Z,8.00
2017-12-09T02:56:30.428Z,8.32
2017-12-09T02:58:58.516Z,7.80
2017-12-09T03:01:27.415Z,8.60
2017-12-09T03:03:55.495Z,7.90
2017-12-09T03:06:23.579Z,7.68
2017-12-09T03:08:51.683Z,7.53
2017-12-09T03:11:19.764Z,9.15
2017-12-09T03:13:47.855Z,8.77
2017-12-09T03:16:16.708Z,8.40
2017-12-09T03:18:44.792Z,8.55
2017-12-09T03:21:12.866Z,9.25
2017-12-09T03:23:41.715Z,9.10
2017-12-09T03:26:09.796Z,8.10
2017-12-09T03:28:37.882Z,9.10
2017-12-09T03:31:05.978Z,8.95
2017-12-09T03:33:34.821Z,9.60
2017-12-09T03:36:02.898Z,8.75
2017-12-09T03:38:30.999Z,9.50
2017-12-09T03:40:59.843Z,8.10
2017-12-09T03:43:27.931Z,10.57
2017-12-09T03:45:56.039Z,10.23
2017-12-09T03:48:24.884Z,10.75
2017-12-09T03:50:52.966Z,9.40
2017-12-09T03:53:21.046Z,11.20
2017-12-09T03:55:49.133Z,10.77
2017-12-09T03:58:17.999Z,10.30
2017-12-09T04:00:46.094Z,10.65
2017-12-09T04:03:14.947Z,11.32
2017-12-09T04:05:43.027Z,8.80
2017-12-09T04:08:11.108Z,10.00
2017-12-09T04:10:39.218Z,9.70
2017-12-09T04:13:07.348Z,9.77
2017-12-09T04:15:35.399Z,10.60
2017-12-09T04:18:03.487Z,10.02
2017-12-09T04:20:31.575Z,10.73
2017-12-09T04:23:00.434Z,10.65
2017-12-09T04:25:28.510Z,10.50
2017-12-09T04:27:56.611Z,10.73
2017-12-09T04:30:25.472Z,11.70
2017-12-09T04:32:53.562Z,10.18
2017-12-09T04:35:22.412Z,10.80
2017-12-09T04:37:50.509Z,9.38
2017-12-09T04:40:18.584Z,10.35
2017-12-09T04:42:47.433Z,10.40
2017-12-09T04:45:15.506Z,9.90
2017-12-09T04:47:43.587Z,8.90
2017-12-09T04:50:11.668Z,9.27
2017-12-09T04:52:39.755Z,10.07
2017-12-09T04:55:08.611Z,9.35
2017-12-09T04:57:36.699Z,10.68
2017-12-09T05:00:04.788Z,10.73
2017-12-09T05:02:33.643Z,10.70
2017-12-09T05:05:01.738Z,10.27
2017-12-09T05:07:29.818Z,10.00
2017-12-09T05:09:58.674Z,10.32
2017-12-09T05:12:26.771Z,9.82
2017-12-09T05:14:55.626Z,10.20
2017-12-09T05:17:23.710Z,9.82
2017-12-09T05:19:51.806Z,10.20
2017-12-09T05:22:20.651Z,8.85
2017-12-09T05:24:48.751Z,9.55
2017-12-09T05:27:16.826Z,9.70
2017-12-09T05:29:45.682Z,8.52
2017-12-09T05:32:13.783Z,9.35
2017-12-09T05:34:42.657Z,10.60
2017-12-09T05:37:10.738Z,9.50
2017-12-09T05:39:38.830Z,9.10
2017-12-09T05:42:06.924Z,9.30
2017-12-09T05:44:35.020Z,9.13
2017-12-09T05:47:03.104Z,10.50
2017-12-09T05:49:31.192Z,9.70
2017-12-09T05:51:59.266Z,10.45
2017-12-09T05:54:28.178Z,13.52
2017-12-09T05:56:56.273Z,10.65
2017-12-09T05:59:24.359Z,9.85
2017-12-09T06:01:52.439Z,9.23
2017-12-09T06:04:20.538Z,10.52
2017-12-09T06:06:48.618Z,9.82
2017-12-09T06:09:17.469Z,9.23
2017-12-09T06:11:45.551Z,9.48
2017-12-09T06:14:13.631Z,8.50
2017-12-09T06:16:41.702Z,8.38
2017-12-09T06:19:09.787Z,7.97
2017-12-09T06:21:38.637Z,8.68
2017-12-09T06:24:06.718Z,8.18
2017-12-09T06:26:34.798Z,9.20
2017-12-09T06:29:02.874Z,7.70
2017-12-09T06:31:31.732Z,8.25
2017-12-09T06:33:59.818Z,7.97
2017-12-09T06:36:27.904Z,8.00
2017-12-09T06:38:56.751Z,8.93
2017-12-09T06:41:24.844Z,8.77
2017-12-09T06:43:53.115Z,7.50
2017-12-09T06:46:21.215Z,7.50
2017-12-09T06:48:50.056Z,7.82
2017-12-09T06:51:18.147Z,6.93
2017-12-09T06:53:46.322Z,7.10
2017-12-09T06:56:14.613Z,8.57
2017-12-09T06:58:42.695Z,7.32
2017-12-09T07:01:10.795Z,7.00
2017-12-09T07:03:39.015Z,6.78
2017-12-09T07:06:07.094Z,7.95
2017-12-09T07:08:35.170Z,6.15
2017-12-09T07:11:04.040Z,7.55
2017-12-09T07:13:32.111Z,7.45
2017-12-09T07:16:00.189Z,7.35
2017-12-09T07:18:28.277Z,8.13
2017-12-09T07:20:57.200Z,7.70
2017-12-09T07:23:25.512Z,7.68
2017-12-09T07:25:53.594Z,7.97
2017-12-09T07:28:21.680Z,8.27
2017-12-09T07:30:50.544Z,7.60
2017-12-09T07:33:18.635Z,7.05
2017-12-09T07:35:46.710Z,6.80
2017-12-09T07:38:14.811Z,8.10
2017-12-09T07:40:42.921Z,6.55
2017-12-09T07:43:11.002Z,7.95
2017-12-09T07:45:39.082Z,7.07
2017-12-09T07:48:07.920Z,7.05
2017-12-09T07:50:35.999Z,7.90
2017-12-09T07:53:04.074Z,6.57
2017-12-09T07:55:32.159Z,7.07
2017-12-09T07:58:00.232Z,6.72
2017-12-09T08:00:28.314Z,6.93
2017-12-09T08:02:56.386Z,6.65
2017-12-09T08:05:25.236Z,6.62
2017-12-09T08:07:53.311Z,6.45
2017-12-09T08:10:21.396Z,6.85
2017-12-09T08:12:49.475Z,7.60
2017-12-09T08:15:17.558Z,6.18
2017-12-09T08:17:46.458Z,6.80
2017-12-09T08:20:14.544Z,7.70
2017-12-09T08:22:42.670Z,5.78
2017-12-09T08:25:10.768Z,6.20
2017-12-09T08:27:39.620Z,6.45
2017-12-09T08:30:07.727Z,6.25
2017-12-09T08:32:36.577Z,6.80
2017-12-09T08:35:04.662Z,6.43
2017-12-09T08:37:32.748Z,6.32
2017-12-09T08:40:00.847Z,6.72
2017-12-09T08:42:28.922Z,5.50
2017-12-09T08:44:57.012Z,6.18
2017-12-09T08:47:25.088Z,5.95
2017-12-09T08:49:53.170Z,6.82
2017-12-09T08:52:21.246Z,6.97
2017-12-09T08:54:49.335Z,7.03
2017-12-09T08:57:17.411Z,6.05
2017-12-09T08:59:46.263Z,6.87
2017-12-09T09:02:14.342Z,6.35
2017-12-09T09:04:42.431Z,6.05
2017-12-09T09:07:10.517Z,6.70
2017-12-09T09:09:39.374Z,6.22
2017-12-09T09:12:07.453Z,6.35
2017-12-09T09:14:35.534Z,6.70
2017-12-09T09:17:04.384Z,7.15
2017-12-09T09:19:32.464Z,6.05
2017-12-09T09:22:00.550Z,6.50
2017-12-09T09:24:28.618Z,6.35
2017-12-09T09:26:56.707Z,6.35
2017-12-09T09:29:25.556Z,6.15
2017-12-09T09:31:53.647Z,6.85
2017-12-09T09:34:21.726Z,6.68
2017-12-09T09:36:49.824Z,6.53
2017-12-09T09:39:17.910Z,6.95
2017-12-09T09:41:46.003Z,7.03
2017-12-09T09:44:14.079Z,6.05
2017-12-09T09:46:42.174Z,6.70
2017-12-09T09:49:10.250Z,6.25
2017-12-09T09:51:39.098Z,5.70
2017-12-09T09:54:07.175Z,6.47
2017-12-09T09:56:35.247Z,5.90
2017-12-09T09:59:03.334Z,7.03
2017-12-09T10:01:31.412Z,6.82
2017-12-09T10:03:59.682Z,6.85
2017-12-09T10:06:27.730Z,5.87
2017-12-09T10:08:55.823Z,6.05
2017-12-09T10:11:24.264Z,6.00
2017-12-09T10:13:52.355Z,5.93
2017-12-09T10:16:20.640Z,6.35
2017-12-09T10:18:48.706Z,6.18
2017-12-09T10:21:16.798Z,5.05
2017-12-09T10:23:45.643Z,4.75
2017-12-09T10:26:13.739Z,4.62
2017-12-09T10:28:41.811Z,5.37
2017-12-09T10:31:10.664Z,4.80
2017-12-09T10:33:38.752Z,5.37
2017-12-09T10:36:06.831Z,4.70
2017-12-09T10:38:34.904Z,4.70
2017-12-09T10:41:02.991Z,4.80
2017-12-09T10:43:31.835Z,4.10
2017-12-09T10:45:59.919Z,4.00
2017-12-09T10:48:27.997Z,4.18
2017-12-09T10:50:56.157Z,4.85
2017-12-09T10:53:24.244Z,4.43
2017-12-09T10:55:52.392Z,3.57
2017-12-09T10:58:20.472Z,4.03
2017-12-09T11:00:48.743Z,3.77
2017-12-09T11:03:17.029Z,4.83
2017-12-09T11:05:45.104Z,3.30
2017-12-09T11:08:13.955Z,5.00
2017-12-09T11:10:42.048Z,4.80
2017-12-09T11:13:10.140Z,4.00
2017-12-09T11:15:38.986Z,4.07
2017-12-09T11:18:07.076Z,4.18
2017-12-09T11:20:35.161Z,4.18
2017-12-09T11:23:04.008Z,4.28
2017-12-09T11:25:32.088Z,3.83
2017-12-09T11:28:00.158Z,4.28
2017-12-09T11:30:28.244Z,3.90
2017-12-09T11:32:56.320Z,4.25
2017-12-09T11:35:24.393Z,4.28
2017-12-09T11:37:52.467Z,4.25
2017-12-09T11:40:21.316Z,4.03
2017-12-09T11:42:49.391Z,4.10
2017-12-09T11:45:17.462Z,5.22
2017-12-09T11:47:45.558Z,3.87
2017-12-09T11:50:13.622Z,4.00
2017-12-09T11:52:41.702Z,4.72
2017-12-09T11:55:09.788Z,4.90
2017-12-09T11:57:38.626Z,4.18
2017-12-09T12:00:06.736Z,4.40
2017-12-09T12:02:34.816Z,4.07
2017-12-09T12:05:02.924Z,4.20
2017-12-09T12:07:31.041Z,3.85
2017-12-09T12:09:59.126Z,4.35
2017-12-09T12:12:27.237Z,4.43
2017-12-09T12:14:55.306Z,4.25
2017-12-09T12:17:23.403Z,4.47
2017-12-09T12:19:51.468Z,4.80
2017-12-09T12:22:20.370Z,4.30
2017-12-09T12:24:48.459Z,4.20
2017-12-09T12:27:16.624Z,4.55
2017-12-09T12:29:44.710Z,4.35
2017-12-09T12:32:13.552Z,4.40
2017-12-09T12:34:41.631Z,4.30
2017-12-09T12:37:09.717Z,4.53
2017-12-09T12:39:37.824Z,3.92
2017-12-09T12:42:06.659Z,4.85
2017-12-09T12:44:34.743Z,4.32
2017-12-09T12:47:02.838Z,4.87
2017-12-09T12:49:31.683Z,5.32
2017-12-09T12:51:59.764Z,4.87
2017-12-09T12:54:27.840Z,5.22
2017-12-09T12:56:55.962Z,4.25
2017-12-09T12:59:24.035Z,4.60
2017-12-09T13:01:52.127Z,4.75
2017-12-09T13:04:20.230Z,3.30
2017-12-09T13:06:48.286Z,4.53
2017-12-09T13:09:16.367Z,4.90
2017-12-09T13:11:44.442Z,4.50
2017-12-09T13:14:12.531Z,4.90
2017-12-09T13:16:41.384Z,4.60
2017-12-09T13:19:09.451Z,4.40
2017-12-09T13:21:37.526Z,4.93
2017-12-09T13:24:05.616Z,5.43
2017-12-09T13:26:33.687Z,4.10
2017-12-09T13:29:02.536Z,4.45
2017-12-09T13:31:30.618Z,5.22
2017-12-09T13:33:58.729Z,4.80
2017-12-09T13:36:27.584Z,4.97
2017-12-09T13:38:55.663Z,4.70
2017-12-09T13:41:23.744Z,4.37
2017-12-09T13:43:51.818Z,4.70
2017-12-09T13:46:20.659Z,4.55
2017-12-09T13:48:48.760Z,4.37
2017-12-09T13:51:16.881Z,4.18
2017-12-09T13:53:44.951Z,5.00
2017-12-09T13:56:13.041Z,4.05
2017-12-09T13:58:41.117Z,4.05
2017-12-09T14:01:09.206Z,4.30
2017-12-09T14:03:37.279Z,4.43
2017-12-09T14:06:05.366Z,4.20
2017-12-09T14:08:33.439Z,4.55
2017-12-09T14:11:02.488Z,4.87
2017-12-09T14:13:30.572Z,4.20
2017-12-09T14:15:58.685Z,4.30
2017-12-09T14:18:27.532Z,4.05
2017-12-09T14:20:55.623Z,4.50
2017-12-09T14:23:23.724Z,4.68
2017-12-09T14:25:51.811Z,3.60
2017-12-09T14:28:19.893Z,4.85
2017-12-09T14:30:47.973Z,4.82
2017-12-09T14:33:16.042Z,3.72
2017-12-09T14:35:44.368Z,4.20
2017-12-09T14:38:13.199Z,4.05
2017-12-09T14:40:41.283Z,5.10
2017-12-09T14:43:09.365Z,4.43
2017-12-09T14:45:37.446Z,3.97
2017-12-09T14:48:05.526Z,4.47
2017-12-09T14:50:33.625Z,5.20
2017-12-09T14:53:01.927Z,4.37
2017-12-09T14:55:30.074Z,4.35
2017-12-09T14:57:58.153Z,4.87
2017-12-09T15:00:26.242Z,4.68
2017-12-09T15:02:54.410Z,4.85
2017-12-09T15:05:22.498Z,4.30
2017-12-09T15:07:50.778Z,4.80
2017-12-09T15:10:19.066Z,4.75
2017-12-09T15:12:47.295Z,4.20
2017-12-09T15:15:15.376Z,4.40
2017-12-09T15:17:43.461Z,4.55
2017-12-09T15:20:11.591Z,3.87
2017-12-09T15:22:39.669Z,4.75
2017-12-09T15:25:07.788Z,5.05
2017-12-09T15:27:37.379Z,3.97
2017-12-09T15:30:21.809Z,4.15
2017-12-09T15:32:50.206Z,4.45
2017-12-09T15:35:18.290Z,4.25
2017-12-09T15:37:46.368Z,4.75
2017-12-09T15:40:15.222Z,5.55
2017-12-09T15:42:43.308Z,4.12
2017-12-09T15:45:11.379Z,4.50
2017-12-09T15:47:39.474Z,5.03
2017-12-09T15:50:08.318Z,4.53
2017-12-09T15:52:36.403Z,4.65
2017-12-09T15:55:04.488Z,4.20
2017-12-09T15:57:32.571Z,4.35
2017-12-09T16:00:01.414Z,5.10
2017-12-09T16:02:29.497Z,4.47
2017-12-09T16:04:57.580Z,4.00
2017-12-09T16:07:25.669Z,6.45
2017-12-09T16:09:54.516Z,4.62
2017-12-09T16:12:22.616Z,4.50
2017-12-09T16:14:51.883Z,5.25
2017-12-09T16:17:19.972Z,4.53
2017-12-09T16:19:48.047Z,5.00
2017-12-09T16:22:16.128Z,4.20
2017-12-09T16:24:45.104Z,4.80
2017-12-09T16:27:13.190Z,5.32
2017-12-09T16:29:42.035Z,5.10
2017-12-09T16:32:10.119Z,4.00
2017-12-09T16:34:38.204Z,4.03
2017-12-09T16:37:06.295Z,3.87
2017-12-09T16:39:35.161Z,4.10
2017-12-09T16:42:03.242Z,3.70
2017-12-09T16:44:32.103Z,4.20
2017-12-09T16:47:00.195Z,3.95
2017-12-09T16:49:28.275Z,4.57
2017-12-09T16:51:57.115Z,4.32
2017-12-09T16:54:25.195Z,4.50
2017-12-09T16:56:53.285Z,6.20
2017-12-09T16:59:21.359Z,4.80
2017-12-09T17:01:49.452Z,3.83
2017-12-09T17:04:18.295Z,4.70
2017-12-09T17:06:46.370Z,5.05
2017-12-09T17:09:14.478Z,4.37
2017-12-09T17:11:43.307Z,3.78
2017-12-09T17:14:11.399Z,4.22
2017-12-09T17:16:39.488Z,4.07
2017-12-09T17:19:07.555Z,3.62
2017-12-09T17:21:35.646Z,3.55
2017-12-09T17:24:04.494Z,3.85
2017-12-09T17:26:33.327Z,3.22
2017-12-09T17:29:01.400Z,3.53
2017-12-09T17:31:29.542Z,3.60
2017-12-09T17:33:57.616Z,4.00
2017-12-09T17:36:26.067Z,4.50
2017-12-09T17:38:54.147Z,4.25
2017-12-09T17:41:23.068Z,4.78
2017-12-09T17:43:51.903Z,5.12
2017-12-09T17:46:19.999Z,4.20
2017-12-09T17:48:48.084Z,4.25
2017-12-09T17:51:16.169Z,4.57
2017-12-09T17:53:45.004Z,4.20
2017-12-09T17:56:13.106Z,4.50
2017-12-09T17:58:41.175Z,4.15
2017-12-09T18:01:09.263Z,4.18
2017-12-09T18:03:37.371Z,3.95
2017-12-09T18:06:05.468Z,3.50
2017-12-09T18:08:33.541Z,4.18
2017-12-09T18:11:01.633Z,4.20
2017-12-09T18:13:29.702Z,3.80
2017-12-09T18:15:57.788Z,3.80
2017-12-09T18:18:26.631Z,2.90
2017-12-09T18:20:54.720Z,3.80
2017-12-09T18:23:22.833Z,3.72
2017-12-09T18:25:50.885Z,3.55
2017-12-09T18:28:19.715Z,3.20
2017-12-09T18:30:47.796Z,3.30
2017-12-09T18:33:16.024Z,4.03
2017-12-09T18:35:44.859Z,3.75
2017-12-09T18:38:12.947Z,3.30
2017-12-09T18:40:41.027Z,3.67
2017-12-09T18:43:09.108Z,3.42
2017-12-09T18:45:37.951Z,4.15
2017-12-09T18:48:06.258Z,3.83
2017-12-09T18:50:34.331Z,3.65
2017-12-09T18:53:02.410Z,5.12
2017-12-09T18:55:31.260Z,3.70
2017-12-09T18:57:59.356Z,3.75
2017-12-09T19:00:27.683Z,3.92
2017-12-09T19:02:55.775Z,3.20
2017-12-09T19:05:24.072Z,4.00
2017-12-09T19:07:53.663Z,4.47
2017-12-09T19:10:21.823Z,4.15
2017-12-09T19:12:49.915Z,3.40
2017-12-09T19:15:17.983Z,3.55
2017-12-09T19:17:46.071Z,4.20
2017-12-09T19:20:14.165Z,3.80
2017-12-09T19:22:42.271Z,3.37
2017-12-09T19:25:10.465Z,3.60
2017-12-09T19:27:38.569Z,4.12
2017-12-09T19:30:07.736Z,3.90
2017-12-09T19:32:35.844Z,4.53
2017-12-09T19:35:03.918Z,3.80
2017-12-09T19:37:31.994Z,4.55
2017-12-09T19:40:00.075Z,3.60
2017-12-09T19:42:28.164Z,4.07
2017-12-09T19:44:56.234Z,4.30
2017-12-09T19:47:24.366Z,3.20
2017-12-09T19:49:52.443Z,3.83
2017-12-09T19:52:20.552Z,4.30
2017-12-09T19:54:48.651Z,3.62
2017-12-09T19:57:17.511Z,3.75
2017-12-09T20:17:45.287Z,3.25
2017-12-09T20:20:13.367Z,3.50
2017-12-09T20:22:41.455Z,3.40
2017-12-09T20:25:10.319Z,3.12
2017-12-09T20:40:47.810Z,3.33
2017-12-09T20:43:16.709Z,3.42
2017-12-09T20:45:45.556Z,3.42
2017-12-09T20:48:13.791Z,4.10
2017-12-09T20:50:41.807Z,3.45
2017-12-09T20:53:09.888Z,3.42
2017-12-09T20:55:38.755Z,3.08
2017-12-09T20:58:06.934Z,2.90
2017-12-09T21:00:35.023Z,2.95
2017-12-09T21:03:03.868Z,3.25
2017-12-09T21:05:31.955Z,3.78
2017-12-09T21:08:01.656Z,3.00
2017-12-09T21:10:29.865Z,2.70
2017-12-09T21:12:58.720Z,2.55
2017-12-09T21:15:26.898Z,3.80
2017-12-09T21:17:54.979Z,2.95
2017-12-09T21:20:23.069Z,2.40
2017-12-09T21:22:51.952Z,3.08
2017-12-09T21:25:20.030Z,3.05
2017-12-09T21:27:48.108Z,4.05
2017-12-09T21:30:16.309Z,3.37
2017-12-09T21:32:44.491Z,2.55
2017-12-09T21:35:12.566Z,3.00
2017-12-09T21:37:41.506Z,2.75
2017-12-09T21:40:09.646Z,2.20
2017-12-09T21:42:37.815Z,2.60
2017-12-09T21:45:06.287Z,2.40
2017-12-09T21:47:34.362Z,2.50
2017-12-09T21:50:02.439Z,2.17
2017-12-09T21:52:30.957Z,2.50
2017-12-09T21:54:59.315Z,2.40
2017-12-09T21:57:27.576Z,2.20
2017-12-09T21:59:56.415Z,2.50
2017-12-09T22:02:24.496Z,2.40
2017-12-09T22:04:52.604Z,2.42
2017-12-09T22:07:21.528Z,2.15
2017-12-09T22:09:49.601Z,2.50
2017-12-09T22:12:17.703Z,2.45
2017-12-09T22:14:45.788Z,2.50
2017-12-09T22:17:13.866Z,2.50
2017-12-09T22:19:42.187Z,2.60
2017-12-09T22:22:10.358Z,2.47
2017-12-09T22:24:38.440Z,1.95
2017-12-09T22:27:06.590Z,2.50
2017-12-09T22:29:34.759Z,2.30
2017-12-09T22:32:02.974Z,2.47
2017-12-09T22:34:32.593Z,2.47
2017-12-09T22:37:00.841Z,2.17
2017-12-09T22:39:29.127Z,2.47
2017-12-09T22:41:57.207Z,2.50
2017-12-09T22:44:25.288Z,2.30
2017-12-09T22:46:54.237Z,2.30
2017-12-09T22:49:22.422Z,1.92
2017-12-09T22:51:50.512Z,1.80
2017-12-09T22:54:18.623Z,2.20
2017-12-09T22:56:46.693Z,2.58
2017-12-09T22:59:14.779Z,2.40
2017-12-09T23:01:42.851Z,2.65
2017-12-09T23:04:10.944Z,2.03
2017-12-09T23:06:39.022Z,2.72
2017-12-09T23:09:09.086Z,1.83
2017-12-09T23:11:37.162Z,1.83
2017-12-09T23:14:05.816Z,2.33
2017-12-09T23:16:34.099Z,1.90
2017-12-09T23:19:02.203Z,2.08
2017-12-09T23:21:30.383Z,2.03
2017-12-09T23:23:58.491Z,1.70
2017-12-09T23:26:26.692Z,2.40
2017-12-09T23:28:54.739Z,2.80
2017-12-09T23:31:23.645Z,2.75
2017-12-09T23:33:51.755Z,2.60
2017-12-09T23:36:19.883Z,2.42
2017-12-09T23:38:48.803Z,2.90
2017-12-09T23:41:16.884Z,8.23
2017-12-09T23:43:44.964Z,3.03
2017-12-09T23:46:13.207Z,2.28
2017-12-09T23:48:41.446Z,2.10
2017-12-09T23:51:09.803Z,2.90
2017-12-09T23:53:37.975Z,2.15
2017-12-09T23:56:06.422Z,2.15
2017-12-09T23:58:34.564Z,2.35
